createdAt,value
2023-03-14T00:02:05.529Z,1.58
2023-03-14T00:04:32.004Z,1.95
2023-03-14T00:06:58.504Z,2.30
2023-03-14T00:09:25.132Z,1.30
2023-03-14T00:11:51.581Z,1.65
2023-03-14T00:14:18.075Z,1.80
2023-03-14T00:16:47.314Z,2.45
2023-03-14T00:19:14.398Z,1.27
2023-03-14T00:21:41.022Z,1.73
2023-03-14T00:24:08.341Z,2.20
2023-03-14T00:26:34.879Z,1.52
2023-03-14T00:29:01.468Z,1.52
2023-03-14T00:31:28.107Z,2.50
2023-03-14T00:33:55.099Z,1.98
2023-03-14T00:36:22.443Z,1.30
2023-03-14T00:38:53.827Z,0.98
2023-03-14T00:41:25.764Z,1.98
2023-03-14T00:43:52.525Z,1.67
2023-03-14T00:46:19.197Z,1.50
2023-03-14T00:48:47.684Z,1.13
2023-03-14T00:51:16.035Z,1.20
2023-03-14T00:53:43.199Z,1.10
2023-03-14T00:56:12.277Z,1.17
2023-03-14T00:58:39.652Z,1.40
2023-03-14T01:01:12.108Z,1.40
2023-03-14T01:03:38.767Z,1.85
2023-03-14T01:06:12.958Z,0.57
2023-03-14T01:08:39.544Z,0.13
2023-03-14T01:11:08.550Z,0.10
2023-03-14T01:13:35.424Z,0.10
2023-03-14T01:16:07.431Z,0.20
2023-03-14T01:18:35.949Z,0.10
2023-03-14T01:21:04.734Z,0.10
2023-03-14T01:23:31.207Z,0.10
2023-03-14T01:25:57.828Z,0.20
2023-03-14T01:28:24.297Z,0.10
2023-03-14T01:30:50.861Z,0.10
2023-03-14T01:33:17.320Z,0.30
2023-03-14T01:35:43.953Z,0.20
2023-03-14T01:38:10.460Z,0.28
2023-03-14T01:40:44.330Z,0.32
2023-03-14T01:43:20.282Z,0.30
2023-03-14T01:45:59.227Z,0.50
2023-03-14T01:48:29.764Z,0.25
2023-03-14T01:50:56.361Z,0.22
2023-03-14T01:53:23.436Z,0.30
2023-03-14T01:55:53.582Z,0.32
2023-03-14T01:58:21.207Z,0.20
2023-03-14T02:00:47.793Z,0.20
2023-03-14T02:03:18.209Z,1.13
2023-03-14T02:05:45.592Z,0.38
2023-03-14T02:08:15.773Z,0.30
2023-03-14T02:10:45.931Z,0.30
2023-03-14T02:13:13.851Z,0.30
2023-03-14T02:15:40.874Z,0.38
2023-03-14T02:18:09.142Z,0.85
2023-03-14T02:20:40.796Z,0.10
2023-03-14T02:23:07.391Z,0.20
2023-03-14T02:25:53.050Z,0.20
2023-03-14T02:28:20.104Z,0.20
2023-03-14T02:30:47.114Z,0.30
2023-03-14T02:33:20.307Z,0.20
2023-03-14T02:35:53.029Z,0.30
2023-03-14T02:38:32.605Z,0.20
2023-03-14T02:40:59.253Z,0.10
2023-03-14T02:43:25.875Z,0.20
2023-03-14T02:45:53.545Z,0.30
2023-03-14T02:48:32.245Z,0.20
2023-03-14T02:51:01.276Z,0.10
2023-03-14T02:53:35.329Z,0.38
2023-03-14T02:56:02.249Z,0.30
2023-03-14T02:58:30.179Z,0.28
2023-03-14T03:00:56.928Z,0.20
2023-03-14T03:03:23.974Z,0.20
2023-03-14T03:05:52.213Z,0.20
2023-03-14T03:08:21.059Z,0.20
2023-03-14T03:10:47.895Z,0.20
2023-03-14T03:13:15.196Z,0.30
2023-03-14T03:15:42.015Z,0.20
2023-03-14T03:18:08.873Z,0.25
2023-03-14T03:20:35.488Z,0.20
2023-03-14T03:23:02.361Z,0.38
2023-03-14T03:25:29.336Z,0.10
2023-03-14T03:27:55.911Z,0.52
2023-03-14T03:30:22.899Z,0.22
2023-03-14T03:32:49.639Z,0.20
2023-03-14T03:35:16.666Z,0.20
2023-03-14T03:37:43.282Z,0.40
2023-03-14T03:40:10.527Z,0.45
2023-03-14T03:42:37.735Z,0.20
2023-03-14T03:45:05.145Z,0.20
2023-03-14T03:47:32.480Z,0.63
2023-03-14T03:49:59.083Z,0.30
2023-03-14T03:52:25.554Z,0.30
2023-03-14T03:54:52.197Z,0.20
2023-03-14T03:57:18.782Z,0.30
2023-03-14T03:59:45.366Z,0.30
2023-03-14T04:02:12.021Z,0.10
2023-03-14T04:04:39.526Z,0.45
2023-03-14T04:07:06.832Z,0.30
2023-03-14T04:09:33.414Z,0.73
2023-03-14T04:12:00.233Z,0.77
2023-03-14T04:14:27.001Z,0.50
2023-03-14T04:16:53.476Z,0.40
2023-03-14T04:19:20.031Z,0.40
2023-03-14T04:21:48.017Z,0.30
2023-03-14T04:24:15.060Z,0.40
2023-03-14T04:26:41.618Z,0.67
2023-03-14T04:29:08.162Z,0.40
2023-03-14T04:31:34.758Z,0.52
2023-03-14T04:34:01.361Z,0.30
2023-03-14T04:36:27.932Z,0.60
2023-03-14T04:38:54.594Z,0.40
2023-03-14T04:41:21.070Z,0.30
2023-03-14T04:43:47.668Z,0.30
2023-03-14T04:46:14.205Z,0.40
2023-03-14T04:48:40.925Z,0.60
2023-03-14T04:51:07.940Z,0.50
2023-03-14T04:53:35.272Z,0.90
2023-03-14T04:56:02.297Z,0.88
2023-03-14T04:58:29.045Z,0.32
2023-03-14T05:00:55.623Z,0.47
2023-03-14T05:03:22.837Z,0.20
2023-03-14T05:05:49.446Z,0.32
2023-03-14T05:08:15.985Z,0.50
2023-03-14T05:10:42.534Z,0.47
2023-03-14T05:13:09.285Z,0.30
2023-03-14T05:15:35.901Z,0.33
2023-03-14T05:18:02.558Z,0.88
2023-03-14T05:20:29.061Z,0.45
2023-03-14T05:22:55.645Z,0.60
2023-03-14T05:25:22.265Z,0.50
2023-03-14T05:27:49.004Z,0.63
2023-03-14T05:30:15.632Z,0.30
2023-03-14T05:32:42.240Z,0.20
2023-03-14T05:35:09.240Z,0.50
2023-03-14T05:37:35.905Z,0.40
2023-03-14T05:40:02.650Z,0.50
2023-03-14T05:42:29.216Z,0.30
2023-03-14T05:44:55.798Z,0.50
2023-03-14T05:47:22.395Z,0.50
2023-03-14T05:49:49.637Z,0.47
2023-03-14T05:52:16.270Z,0.27
2023-03-14T05:54:42.848Z,0.35
2023-03-14T05:57:09.510Z,0.47
2023-03-14T05:59:36.145Z,0.32
2023-03-14T06:02:02.865Z,0.40
2023-03-14T06:04:29.685Z,0.97
2023-03-14T06:06:56.359Z,0.45
2023-03-14T06:09:24.412Z,0.50
2023-03-14T06:11:51.194Z,0.68
2023-03-14T06:14:18.224Z,0.50
2023-03-14T06:16:44.924Z,0.40
2023-03-14T06:19:13.767Z,0.52
2023-03-14T06:21:40.388Z,0.45
2023-03-14T06:24:12.795Z,0.47
2023-03-14T06:26:39.442Z,0.60
2023-03-14T06:29:08.593Z,0.33
2023-03-14T06:31:36.484Z,0.50
2023-03-14T06:34:03.827Z,0.28
2023-03-14T06:36:30.433Z,0.28
2023-03-14T06:38:57.124Z,0.20
2023-03-14T06:41:27.932Z,0.20
2023-03-14T06:44:03.982Z,0.47
2023-03-14T06:46:30.649Z,0.52
2023-03-14T06:48:58.773Z,0.30
2023-03-14T06:51:32.688Z,0.65
2023-03-14T06:54:02.859Z,0.30
2023-03-14T06:56:30.477Z,0.60
2023-03-14T06:58:59.652Z,0.50
2023-03-14T07:01:28.645Z,0.32
2023-03-14T07:04:00.328Z,0.60
2023-03-14T07:06:27.357Z,0.13
2023-03-14T07:08:53.975Z,0.38
2023-03-14T07:11:20.640Z,0.55
2023-03-14T07:13:50.396Z,0.20
2023-03-14T07:16:17.198Z,0.30
2023-03-14T07:18:47.358Z,0.50
2023-03-14T07:24:55.338Z,0.30
2023-03-14T07:27:29.678Z,0.50
2023-03-14T07:29:59.509Z,0.40
2023-03-14T07:32:41.864Z,0.65
2023-03-14T07:35:16.734Z,0.33
2023-03-14T07:37:43.266Z,0.35
2023-03-14T07:43:03.682Z,0.60
2023-03-14T07:45:42.513Z,0.68
2023-03-14T07:48:11.103Z,0.30
2023-03-14T07:50:37.692Z,0.43
2023-03-14T07:53:08.590Z,0.22
2023-03-14T07:55:35.441Z,0.30
2023-03-14T07:58:03.417Z,0.50
2023-03-14T08:00:30.243Z,0.70
2023-03-14T08:02:57.019Z,0.30
2023-03-14T08:05:36.219Z,1.10
2023-03-14T08:08:03.132Z,0.45
2023-03-14T08:13:15.572Z,0.50
2023-03-14T08:15:42.477Z,0.82
2023-03-14T08:18:09.441Z,0.60
2023-03-14T08:20:41.612Z,0.95
2023-03-14T08:23:28.454Z,0.32
2023-03-14T08:25:56.672Z,0.37
2023-03-14T08:28:23.309Z,0.40
2023-03-14T08:30:58.040Z,0.50
2023-03-14T08:33:33.824Z,0.50
2023-03-14T08:36:03.233Z,0.45
2023-03-14T08:38:29.880Z,0.40
2023-03-14T08:41:00.704Z,0.63
2023-03-14T08:43:28.638Z,0.30
2023-03-14T08:46:44.369Z,0.40
2023-03-14T08:49:09.838Z,0.20
2023-03-14T08:51:37.683Z,0.10
2023-03-14T08:54:21.478Z,0.20
2023-03-14T08:57:01.475Z,0.20
2023-03-14T08:59:28.451Z,0.20
2023-03-14T09:01:55.602Z,0.10
2023-03-14T09:04:23.002Z,0.03
2023-03-14T09:06:50.025Z,0.08
2023-03-14T09:09:16.652Z,0.10
2023-03-14T09:11:43.304Z,0.20
2023-03-14T09:14:09.836Z,0.10
2023-03-14T09:16:55.063Z,0.10
2023-03-14T09:19:24.778Z,0.20
2023-03-14T09:21:51.551Z,0.30
2023-03-14T09:24:19.090Z,0.20
2023-03-14T09:26:45.604Z,0.30
2023-03-14T09:29:12.449Z,0.10
2023-03-14T09:31:41.580Z,0.25
2023-03-14T09:34:08.277Z,0.43
2023-03-14T09:36:34.826Z,0.50
2023-03-14T09:39:02.366Z,0.32
2023-03-14T09:41:33.789Z,0.70
2023-03-14T09:44:24.043Z,0.60
2023-03-14T09:46:58.038Z,0.22
2023-03-14T09:49:43.856Z,0.25
2023-03-14T09:58:15.304Z,0.50
2023-03-14T10:00:41.917Z,0.28
2023-03-14T10:03:14.405Z,0.40
2023-03-14T10:05:46.693Z,0.40
2023-03-14T10:08:25.029Z,0.40
2023-03-14T10:10:55.872Z,0.40
2023-03-14T10:13:30.079Z,0.20
2023-03-14T10:16:09.193Z,0.77
2023-03-14T10:18:35.760Z,0.80
2023-03-14T10:21:23.017Z,0.43
2023-03-14T10:23:50.141Z,0.30
2023-03-14T10:26:19.534Z,0.52
2023-03-14T10:29:02.107Z,0.70
2023-03-14T10:31:29.153Z,0.85
2023-03-14T10:34:18.764Z,0.50
2023-03-14T10:45:44.288Z,0.50
2023-03-14T10:48:24.502Z,0.47
2023-03-14T10:51:03.733Z,0.82
2023-03-14T10:54:01.461Z,0.60
2023-03-14T10:56:34.237Z,1.00
2023-03-14T10:59:01.867Z,0.65
2023-03-14T11:02:01.956Z,0.40
2023-03-14T11:04:46.126Z,0.70
2023-03-14T11:07:27.005Z,0.65
2023-03-14T11:10:13.346Z,0.55
2023-03-14T11:13:08.010Z,0.43
2023-03-14T11:15:42.186Z,0.47
2023-03-14T11:18:43.097Z,0.70
2023-03-14T11:21:15.135Z,0.35
2023-03-14T11:23:41.889Z,0.30
2023-03-14T11:26:34.027Z,0.40
2023-03-14T11:29:23.394Z,0.70
2023-03-14T11:31:50.407Z,0.40
2023-03-14T11:34:43.663Z,0.60
2023-03-14T11:37:23.633Z,0.52
2023-03-14T11:40:17.626Z,0.63
2023-03-14T11:42:54.464Z,0.60
2023-03-14T11:45:28.902Z,0.60
2023-03-14T11:48:14.499Z,0.60
2023-03-14T11:50:45.675Z,0.63
2023-03-14T11:53:15.172Z,0.40
2023-03-14T11:58:39.210Z,0.55
2023-03-14T12:01:18.894Z,0.68
2023-03-14T12:04:04.456Z,1.38
2023-03-14T12:06:48.253Z,0.70
2023-03-14T12:09:17.696Z,0.53
2023-03-14T12:11:59.242Z,0.90
2023-03-14T12:14:33.192Z,0.80
2023-03-14T12:17:19.738Z,1.15
2023-03-14T12:19:48.299Z,0.50
2023-03-14T12:22:30.005Z,0.90
2023-03-14T12:25:17.008Z,0.68
2023-03-14T12:27:45.374Z,0.65
2023-03-14T12:30:25.888Z,0.82
2023-03-14T12:33:12.330Z,0.63
2023-03-14T12:35:51.754Z,0.77
2023-03-14T12:38:40.693Z,0.63
2023-03-14T12:41:37.694Z,0.88
2023-03-14T12:44:38.782Z,0.40
2023-03-14T12:47:37.405Z,0.65
2023-03-14T12:50:15.936Z,0.27
2023-03-14T12:53:01.035Z,0.60
2023-03-14T12:58:46.429Z,0.30
2023-03-14T13:01:20.148Z,0.60
2023-03-14T13:03:56.713Z,0.30
2023-03-14T13:06:54.788Z,0.32
2023-03-14T13:09:30.667Z,0.20
2023-03-14T13:12:02.902Z,0.40
2023-03-14T13:14:36.014Z,0.75
2023-03-14T13:17:19.412Z,0.50
2023-03-14T13:20:22.476Z,0.68
2023-03-14T13:23:08.099Z,0.38
2023-03-14T13:33:22.880Z,0.20
2023-03-14T13:36:27.821Z,0.32
2023-03-14T13:39:23.105Z,0.38
2023-03-14T13:41:50.037Z,0.20
2023-03-14T13:44:38.878Z,0.50
2023-03-14T13:47:13.544Z,0.30
2023-03-14T13:49:40.864Z,0.70
2023-03-14T13:52:32.197Z,0.45
2023-03-14T13:55:01.465Z,0.40
2023-03-14T13:57:47.320Z,0.40
2023-03-14T14:00:59.334Z,0.50
2023-03-14T14:07:49.449Z,0.20
2023-03-14T14:10:16.517Z,0.30
2023-03-14T14:12:56.750Z,0.40
2023-03-14T14:15:34.424Z,0.37
2023-03-14T14:21:49.287Z,0.73
2023-03-14T14:24:21.970Z,0.60
2023-03-14T14:26:56.770Z,0.10
2023-03-14T14:29:33.962Z,0.33
2023-03-14T14:32:14.772Z,0.65
2023-03-14T14:34:56.739Z,0.40
2023-03-14T14:37:29.128Z,0.40
2023-03-14T14:40:22.442Z,0.60
2023-03-14T14:43:04.258Z,0.27
2023-03-14T14:45:35.856Z,0.30
2023-03-14T14:48:17.009Z,0.65
2023-03-14T14:50:57.733Z,0.52
2023-03-14T14:53:29.565Z,0.50
2023-03-14T14:56:04.498Z,0.70
2023-03-14T14:58:34.781Z,0.80
2023-03-14T15:04:00.445Z,0.60
2023-03-14T15:06:33.548Z,0.60
2023-03-14T15:09:00.785Z,0.40
2023-03-14T15:11:27.931Z,0.30
2023-03-14T15:13:55.692Z,0.47
2023-03-14T15:16:30.581Z,0.35
2023-03-14T15:19:24.658Z,0.50
2023-03-14T15:21:55.308Z,0.50
2023-03-14T15:24:31.684Z,0.57
2023-03-14T15:26:58.374Z,0.40
2023-03-14T15:29:30.404Z,0.43
2023-03-14T15:32:00.015Z,0.60
2023-03-14T15:34:35.060Z,0.60
2023-03-14T15:37:08.322Z,0.55
2023-03-14T15:39:39.565Z,0.63
2023-03-14T15:42:12.293Z,0.40
2023-03-14T15:44:40.428Z,0.40
2023-03-14T15:47:39.346Z,0.40
2023-03-14T15:50:31.939Z,0.50
2023-03-14T15:53:21.945Z,0.40
2023-03-14T15:56:15.310Z,0.43
2023-03-14T15:58:54.691Z,0.40
2023-03-14T16:01:30.988Z,0.70
2023-03-14T16:04:56.710Z,0.57
2023-03-14T16:07:39.895Z,0.60
2023-03-14T16:10:36.822Z,0.77
2023-03-14T16:14:19.852Z,1.27
2023-03-14T16:19:34.547Z,0.70
2023-03-14T16:22:01.098Z,0.68
2023-03-14T16:24:32.036Z,0.50
2023-03-14T16:26:58.837Z,0.52
2023-03-14T16:29:34.223Z,0.50
2023-03-14T16:32:01.013Z,0.40
2023-03-14T16:34:31.786Z,0.50
2023-03-14T16:37:12.096Z,0.45
2023-03-14T16:42:43.781Z,0.70
2023-03-14T16:45:20.878Z,0.50
2023-03-14T16:47:52.309Z,0.63
2023-03-14T16:50:25.453Z,0.80
2023-03-14T16:52:56.651Z,0.90
2023-03-14T16:58:27.476Z,1.70
2023-03-14T17:01:01.103Z,1.60
2023-03-14T17:03:32.997Z,1.70
2023-03-14T17:09:12.893Z,0.90
2023-03-14T17:12:28.998Z,0.95
2023-03-14T17:15:07.428Z,1.00
2023-03-14T17:17:38.557Z,0.50
2023-03-14T17:20:22.714Z,0.30
2023-03-14T17:22:52.930Z,0.40
2023-03-14T17:25:21.042Z,0.73
2023-03-14T17:28:31.774Z,0.63
2023-03-14T17:31:57.868Z,0.28
2023-03-14T17:42:21.929Z,0.50
2023-03-14T17:44:52.588Z,0.30
2023-03-14T17:47:19.445Z,0.60
2023-03-14T17:50:08.434Z,0.47
2023-03-14T17:52:42.190Z,0.30
2023-03-14T17:55:27.760Z,0.20
2023-03-14T17:58:12.840Z,0.43
2023-03-14T18:01:19.903Z,0.20
2023-03-14T18:10:53.262Z,0.35
2023-03-14T18:13:25.930Z,0.20
2023-03-14T18:15:55.738Z,0.65
2023-03-14T18:18:35.759Z,0.40
2023-03-14T18:21:11.764Z,0.23
2023-03-14T18:23:42.852Z,0.73
2023-03-14T18:29:08.089Z,0.60
2023-03-14T18:36:14.443Z,1.40
2023-03-14T18:38:52.327Z,1.00
2023-03-14T18:42:06.419Z,0.98
2023-03-14T18:44:46.665Z,2.00
2023-03-14T18:50:34.119Z,1.20
2023-03-14T18:53:07.379Z,0.93
2023-03-14T18:55:34.568Z,1.38
2023-03-14T18:58:01.218Z,0.65
2023-03-14T19:01:01.598Z,0.98
2023-03-14T19:03:30.968Z,0.70
2023-03-14T19:06:01.466Z,1.05
2023-03-14T19:11:20.785Z,0.50
2023-03-14T19:14:00.103Z,0.93
2023-03-14T19:16:33.877Z,0.87
2023-03-14T19:19:12.781Z,0.77
2023-03-14T19:21:49.399Z,0.77
2023-03-14T19:27:43.362Z,0.75
2023-03-14T19:30:18.341Z,0.87
2023-03-14T19:37:54.889Z,1.42
2023-03-14T19:40:10.709Z,1.35
2023-03-14T19:43:49.582Z,0.95
2023-03-14T19:46:57.130Z,0.93
2023-03-14T19:49:30.543Z,1.38
2023-03-14T19:51:59.844Z,1.10
2023-03-14T19:54:26.681Z,1.50
2023-03-14T19:57:04.253Z,1.15
2023-03-14T19:59:45.538Z,1.20
2023-03-14T20:02:22.827Z,0.85
2023-03-14T20:04:50.583Z,1.10
2023-03-14T20:07:41.298Z,0.52
2023-03-14T20:10:24.765Z,1.33
2023-03-14T20:12:51.844Z,0.90
2023-03-14T20:15:24.582Z,1.60
2023-03-14T20:18:01.446Z,1.55
2023-03-14T20:20:48.532Z,1.38
2023-03-14T20:23:26.978Z,1.48
2023-03-14T20:26:01.821Z,0.60
2023-03-14T20:28:57.224Z,1.00
2023-03-14T20:31:34.171Z,0.70
2023-03-14T20:34:01.487Z,0.88
2023-03-14T20:36:41.376Z,0.95
2023-03-14T20:39:20.746Z,0.40
2023-03-14T20:41:50.651Z,0.40
2023-03-14T20:44:19.763Z,0.50
2023-03-14T20:46:48.728Z,0.60
2023-03-14T20:49:18.590Z,0.90
2023-03-14T20:51:48.946Z,0.53
2023-03-14T20:54:15.634Z,0.80
2023-03-14T20:56:49.027Z,0.65
2023-03-14T20:59:15.830Z,0.73
2023-03-14T21:01:43.227Z,0.40
2023-03-14T21:04:17.999Z,0.30
2023-03-14T21:06:47.251Z,0.30
2023-03-14T21:09:21.227Z,0.30
2023-03-14T21:11:53.049Z,0.30
2023-03-14T21:14:22.790Z,0.20
2023-03-14T21:16:58.366Z,0.23
2023-03-14T21:19:30.991Z,0.25
2023-03-14T21:22:07.552Z,0.30
2023-03-14T21:24:36.746Z,0.30
2023-03-14T21:27:03.430Z,0.20
2023-03-14T21:29:33.706Z,0.27
2023-03-14T21:32:00.492Z,0.30
2023-03-14T21:34:41.038Z,0.40
2023-03-14T21:37:07.639Z,0.40
2023-03-14T21:39:34.532Z,0.50
2023-03-14T21:42:05.104Z,0.20
2023-03-14T21:44:37.519Z,0.50
2023-03-14T21:47:12.776Z,0.60
2023-03-14T21:50:16.500Z,0.30
2023-03-14T21:52:46.753Z,0.50
2023-03-14T21:55:17.662Z,0.40
2023-03-14T21:57:55.091Z,0.70
2023-03-14T22:00:23.825Z,0.50
2023-03-14T22:03:12.995Z,0.60
2023-03-14T22:05:49.947Z,0.65
2023-03-14T22:08:24.782Z,0.50
2023-03-14T22:11:32.239Z,0.57
2023-03-14T22:18:48.509Z,0.32
2023-03-14T22:21:35.926Z,0.50
2023-03-14T22:24:04.784Z,0.70
2023-03-14T22:26:50.300Z,0.73
2023-03-14T22:32:30.175Z,0.73
2023-03-14T22:34:58.233Z,1.00
2023-03-14T22:37:38.766Z,0.60
2023-03-14T22:40:11.210Z,0.65
2023-03-14T22:42:37.828Z,0.95
2023-03-14T22:45:09.631Z,0.85
2023-03-14T22:47:37.884Z,1.10
2023-03-14T22:50:06.892Z,1.00
2023-03-14T22:53:22.698Z,0.80
2023-03-14T22:55:23.249Z,1.58
2023-03-14T22:58:05.965Z,0.63
2023-03-14T23:00:35.238Z,0.75
2023-03-14T23:03:02.722Z,0.80
2023-03-14T23:05:29.782Z,1.23
2023-03-14T23:07:56.864Z,1.10
2023-03-14T23:10:23.778Z,0.90
2023-03-14T23:12:51.024Z,1.40
2023-03-14T23:15:17.822Z,0.90
2023-03-14T23:17:44.965Z,0.93
2023-03-14T23:20:13.184Z,1.17
2023-03-14T23:22:39.864Z,1.20
2023-03-14T23:25:07.176Z,0.98
2023-03-14T23:27:34.513Z,1.60
2023-03-14T23:30:01.344Z,2.03
2023-03-14T23:32:28.046Z,2.30
2023-03-14T23:34:54.729Z,2.00
2023-03-14T23:37:23.496Z,2.00
2023-03-14T23:39:50.456Z,1.40
2023-03-14T23:42:17.107Z,2.15
2023-03-14T23:44:43.621Z,2.25
2023-03-14T23:47:10.414Z,2.40
2023-03-14T23:49:37.025Z,1.40
2023-03-14T23:52:04.049Z,1.30
2023-03-14T23:54:30.721Z,1.63
2023-03-14T23:56:57.404Z,1.83
2023-03-14T23:59:23.988Z,1.92
